Time;durP1;ratioP1;P1;durP2;ratioP2;P2;SDS_P1;SDS_P2;PMS_P1;PMS_P2;Temp;Humidity;BMP_temperature;BMP_pressure;BME280_temperature;BME280_humidity;BME280_pressure;Samples;Min_cycle;Max_cycle;Signal;HPM_P1;HPM_P2
2023/07/08 00:00:27;;;;;;;1999.90;999.90;;;22.70;78.50;;;;;;5097483;28;20122;-74
2023/07/08 00:02:55;;;;;;;1999.90;999.90;;;22.80;78.20;;;;;;5092667;28;20115;-71
2023/07/08 00:05:25;;;;;;;1999.90;999.90;;;23.00;77.20;;;;;;5097188;28;20055;-72
2023/07/08 00:07:53;;;;;;;1999.90;999.90;;;23.30;76.30;;;;;;5091735;28;20512;-71
2023/07/08 00:10:25;;;;;;;1999.90;999.90;;;23.50;75.50;;;;;;5084593;28;20032;-71
2023/07/08 00:12:54;;;;;;;1999.90;999.90;;;23.30;74.90;;;;;;5088881;28;20024;-76
2023/07/08 00:15:25;;;;;;;1999.90;999.90;;;23.20;75.10;;;;;;5094248;28;20513;-71
2023/07/08 00:17:53;;;;;;;1999.90;999.90;;;23.50;74.10;;;;;;5083048;28;20054;-72
2023/07/08 00:20:38;;;;;;;1999.90;999.90;;;23.70;74.40;;;;;;5090628;28;20479;-74
2023/07/08 00:23:06;;;;;;;1999.90;999.90;;;23.60;73.40;;;;;;5096938;28;20036;-71
2023/07/08 00:25:33;;;;;;;1999.90;999.90;;;23.70;73.30;;;;;;5098302;28;20457;-73
2023/07/08 00:28:01;;;;;;;1999.90;999.90;;;23.30;73.20;;;;;;5088740;28;20484;-70
2023/07/08 00:30:31;;;;;;;1999.90;999.90;;;23.50;72.60;;;;;;5088156;28;20483;-71
2023/07/08 00:32:59;;;;;;;1999.90;999.90;;;23.60;71.30;;;;;;5089385;28;20097;-69
2023/07/08 00:35:36;;;;;;;1999.90;999.90;;;23.40;71.40;;;;;;5088237;28;20032;-71
2023/07/08 00:38:28;;;;;;;1999.90;999.90;;;23.10;71.20;;;;;;5099833;28;20030;-71
2023/07/08 00:41:04;;;;;;;1999.90;999.90;;;23.70;71.30;;;;;;5093242;28;20416;-72
2023/07/08 00:43:37;;;;;;;1999.90;999.90;;;24.50;70.60;;;;;;5095996;28;20429;-71
2023/07/08 00:46:16;;;;;;;1999.90;999.90;;;25.00;69.40;;;;;;5087621;28;20524;-70
2023/07/08 00:48:46;;;;;;;1999.90;999.90;;;25.40;68.70;;;;;;5087723;28;20046;-71
2023/07/08 00:51:13;;;;;;;1999.90;999.90;;;25.90;67.50;;;;;;5083301;28;20027;-71
2023/07/08 00:53:40;;;;;;;1999.90;999.90;;;26.30;67.10;;;;;;5089545;28;20047;-75
2023/07/08 00:56:17;;;;;;;1999.90;999.90;;;26.60;66.20;;;;;;5090515;28;20115;-76
2023/07/08 00:59:04;;;;;;;1999.90;999.90;;;26.60;66.40;;;;;;5092789;28;20497;-75
2023/07/08 01:01:34;;;;;;;1999.90;999.90;;;26.50;64.30;;;;;;5092068;28;20020;-77
2023/07/08 01:04:08;;;;;;;1999.90;999.90;;;26.70;64.50;;;;;;5086907;28;20494;-76
2023/07/08 01:06:39;;;;;;;1999.90;999.90;;;26.40;63.60;;;;;;5082034;28;20031;-77
2023/07/08 01:09:10;;;;;;;1999.90;999.90;;;25.90;63.80;;;;;;5096235;28;20028;-77
2023/07/08 01:11:40;;;;;;;1999.90;999.90;;;25.80;64.40;;;;;;5090163;28;20065;-76
2023/07/08 01:14:12;;;;;;;1999.90;999.90;;;25.90;64.20;;;;;;5089840;28;20031;-77
2023/07/08 01:16:42;;;;;;;1999.90;999.90;;;26.30;63.30;;;;;;5092637;28;20045;-73
2023/07/08 01:19:16;;;;;;;1999.90;999.90;;;26.90;63.50;;;;;;5089981;28;20134;-75
2023/07/08 01:22:00;;;;;;;1999.90;999.90;;;27.40;62.00;;;;;;5085270;28;20024;-72
2023/07/08 01:24:30;;;;;;;1999.90;999.90;;;27.40;62.50;;;;;;5089971;28;20047;-78
2023/07/08 01:26:58;;;;;;;1999.90;999.90;;;27.50;62.30;;;;;;5091645;28;20487;-75
2023/07/08 01:29:26;;;;;;;1999.90;999.90;;;27.90;62.70;;;;;;5093113;28;20023;-72
2023/07/08 01:31:55;;;;;;;1999.90;999.90;;;27.90;61.80;;;;;;5088373;28;20549;-76
2023/07/08 01:34:23;;;;;;;1999.90;999.90;;;27.50;62.10;;;;;;5090856;28;20035;-75
2023/07/08 01:36:56;;;;;;;1999.90;999.90;;;27.30;62.70;;;;;;5092871;28;20028;-76
2023/07/08 01:39:25;;;;;;;1999.90;999.90;;;27.20;63.10;;;;;;5095629;28;20024;-72
2023/07/08 01:41:53;;;;;;;1999.90;999.90;;;26.90;63.00;;;;;;5094239;28;20032;-76
2023/07/08 01:44:32;;;;;;;1999.90;999.90;;;27.10;64.00;;;;;;5097821;28;20035;-76
2023/07/08 01:47:19;;;;;;;1999.90;999.90;;;26.40;62.90;;;;;;5097458;28;20039;-74
2023/07/08 01:49:48;;;;;;;1999.90;999.90;;;26.50;63.60;;;;;;5096800;28;20021;-74
2023/07/08 01:52:18;;;;;;;1999.90;999.90;;;26.50;64.40;;;;;;5104815;28;20094;-77
2023/07/08 01:54:45;;;;;;;1999.90;999.90;;;26.90;64.10;;;;;;5091772;28;20032;-74
2023/07/08 01:57:12;;;;;;;1999.90;999.90;;;27.20;63.20;;;;;;5097367;28;20068;-70
2023/07/08 01:59:40;;;;;;;1999.90;999.90;;;26.60;63.20;;;;;;5098803;28;20020;-76
2023/07/08 02:02:07;;;;;;;1999.90;999.90;;;26.70;63.90;;;;;;5098431;28;20060;-82
2023/07/08 02:04:34;;;;;;;1999.90;999.90;;;26.50;64.10;;;;;;5094897;28;20044;-78
2023/07/08 02:07:02;;;;;;;1999.90;999.90;;;26.60;63.60;;;;;;5088084;28;20036;-77
2023/07/08 02:09:30;;;;;;;1999.90;999.90;;;26.70;64.00;;;;;;5095994;28;20423;-80
2023/07/08 02:11:57;;;;;;;1999.90;999.90;;;26.70;63.60;;;;;;5094022;28;20032;-78
2023/07/08 02:14:24;;;;;;;1999.90;999.90;;;26.30;63.00;;;;;;5099162;28;20039;-80
2023/07/08 02:16:52;;;;;;;1999.90;999.90;;;24.50;63.60;;;;;;5099343;28;20089;-82
2023/07/08 02:19:21;;;;;;;1999.90;999.90;;;24.10;65.00;;;;;;5099195;28;20043;-77
2023/07/08 02:21:49;;;;;;;1999.90;999.90;;;23.50;65.20;;;;;;5094713;28;20035;-78
2023/07/08 02:24:16;;;;;;;1999.90;999.90;;;23.20;66.80;;;;;;5097765;28;20028;-80
2023/07/08 02:26:47;;;;;;;1999.90;999.90;;;23.10;67.20;;;;;;5092409;28;20035;-75
2023/07/08 02:29:14;;;;;;;1999.90;999.90;;;22.80;67.00;;;;;;5098145;28;20024;-77
2023/07/08 02:31:41;;;;;;;1999.90;999.90;;;23.10;67.20;;;;;;5102583;28;20031;-76
2023/07/08 02:34:09;;;;;;;1999.90;999.90;;;22.80;67.20;;;;;;5101356;28;20441;-77
2023/07/08 02:36:38;;;;;;;1999.90;999.90;;;22.90;66.80;;;;;;5099647;28;20039;-78
2023/07/08 02:39:06;;;;;;;1999.90;999.90;;;22.20;66.90;;;;;;5106001;28;20024;-73
2023/07/08 02:41:33;;;;;;;1999.90;999.90;;;22.00;67.00;;;;;;5103169;28;20103;-79
2023/07/08 02:44:00;;;;;;;1999.90;999.90;;;21.90;66.90;;;;;;5109203;28;20482;-80
2023/07/08 02:46:27;;;;;;;1999.90;999.90;;;21.70;67.00;;;;;;5092735;28;20040;-70
2023/07/08 02:48:55;;;;;;;1999.90;999.90;;;21.60;68.30;;;;;;5108026;28;20024;-72
2023/07/08 02:51:22;;;;;;;1999.90;999.90;;;22.30;67.40;;;;;;5098016;28;20111;-72
2023/07/08 02:53:50;;;;;;;1999.90;999.90;;;22.20;67.30;;;;;;5105710;28;20094;-74
2023/07/08 02:56:18;;;;;;;1999.90;999.90;;;22.20;67.10;;;;;;5100726;28;20363;-78
2023/07/08 02:58:45;;;;;;;1999.90;999.90;;;22.20;66.70;;;;;;5103171;28;20043;-76
2023/07/08 03:01:17;;;;;;;1999.90;999.90;;;22.00;67.00;;;;;;5093050;28;20082;-75
2023/07/08 03:03:48;;;;;;;1999.90;999.90;;;21.80;67.30;;;;;;5090708;28;20138;-79
2023/07/08 03:06:16;;;;;;;1999.90;999.90;;;21.90;68.40;;;;;;5092665;28;20062;-77
2023/07/08 03:08:43;;;;;;;1999.90;999.90;;;22.50;68.20;;;;;;5089740;28;20024;-78
2023/07/08 03:11:12;;;;;;;1999.90;999.90;;;22.70;66.20;;;;;;5088766;28;20024;-72
2023/07/08 03:13:39;;;;;;;1999.90;999.90;;;22.40;66.60;;;;;;5094130;28;20032;-72
2023/07/08 03:16:12;;;;;;;1999.90;999.90;;;22.00;66.30;;;;;;5104201;28;20027;-77
2023/07/08 03:18:45;;;;;;;1999.90;999.90;;;21.90;67.00;;;;;;5100724;28;20096;-70
2023/07/08 03:21:14;;;;;;;1999.90;999.90;;;22.00;67.30;;;;;;5098199;28;20027;-76
2023/07/08 03:23:42;;;;;;;1999.90;999.90;;;22.00;67.20;;;;;;5096653;28;20027;-71
2023/07/08 03:26:21;;;;;;;1999.90;999.90;;;22.10;67.20;;;;;;5093656;28;20040;-79
2023/07/08 03:28:48;;;;;;;1999.90;999.90;;;22.00;67.10;;;;;;5095105;28;20020;-74
2023/07/08 03:31:16;;;;;;;1999.90;999.90;;;21.80;67.30;;;;;;5092459;28;20028;-74
2023/07/08 03:33:44;;;;;;;1999.90;999.90;;;21.30;67.90;;;;;;5099923;28;20414;-73
2023/07/08 03:36:23;;;;;;;1999.90;999.90;;;21.00;68.90;;;;;;5098099;28;20419;-73
2023/07/08 03:38:57;;;;;;;1999.90;999.90;;;21.00;69.70;;;;;;5103130;28;20016;-78
2023/07/08 03:41:25;;;;;;;1999.90;999.90;;;20.80;69.40;;;;;;5095773;28;20032;-75
2023/07/08 03:43:52;;;;;;;1999.90;999.90;;;20.50;69.80;;;;;;5105512;28;20058;-78
2023/07/08 03:46:21;;;;;;;1999.90;999.90;;;20.30;70.40;;;;;;5092897;28;20044;-76
2023/07/08 03:48:48;;;;;;;1999.90;999.90;;;20.10;70.40;;;;;;5098326;28;20025;-77
2023/07/08 03:51:27;;;;;;;1999.90;999.90;;;20.10;71.10;;;;;;5096071;28;20040;-74
2023/07/08 03:53:54;;;;;;;1999.90;999.90;;;19.90;71.40;;;;;;5105094;28;20023;-72
2023/07/08 03:56:22;;;;;;;1999.90;999.90;;;19.80;71.30;;;;;;5100095;28;20024;-75
2023/07/08 03:58:49;;;;;;;1999.90;999.90;;;19.70;72.10;;;;;;5099904;28;20106;-75
2023/07/08 04:01:20;;;;;;;1999.90;999.90;;;19.60;72.30;;;;;;5094741;28;20035;-71
2023/07/08 04:03:48;;;;;;;1999.90;999.90;;;19.40;72.70;;;;;;5099869;28;20081;-78
2023/07/08 04:06:16;;;;;;;1999.90;999.90;;;19.40;72.80;;;;;;5094197;28;20047;-76
2023/07/08 04:08:43;;;;;;;1999.90;999.90;;;19.30;72.90;;;;;;5100724;28;20027;-74
2023/07/08 04:11:16;;;;;;;1999.90;999.90;;;19.30;72.90;;;;;;5095427;28;20062;-77
2023/07/08 04:13:43;;;;;;;1999.90;999.90;;;19.30;72.70;;;;;;5095220;28;20467;-77
2023/07/08 04:16:21;;;;;;;1999.90;999.90;;;19.20;72.50;;;;;;5099199;28;20031;-73
2023/07/08 04:18:50;;;;;;;1999.90;999.90;;;19.20;73.00;;;;;;5097927;28;20485;-75
2023/07/08 04:21:18;;;;;;;1999.90;999.90;;;19.10;73.50;;;;;;5096679;28;20055;-74
2023/07/08 04:23:46;;;;;;;1999.90;999.90;;;19.00;74.00;;;;;;5101416;28;20016;-72
2023/07/08 04:26:13;;;;;;;1999.90;999.90;;;19.00;73.90;;;;;;5103509;28;20032;-80
2023/07/08 04:28:41;;;;;;;1999.90;999.90;;;19.00;73.60;;;;;;5103087;28;20024;-73
2023/07/08 04:31:09;;;;;;;1999.90;999.90;;;19.00;74.00;;;;;;5091247;28;20055;-77
2023/07/08 04:33:37;;;;;;;1999.90;999.90;;;19.00;74.80;;;;;;5094635;28;20110;-72
2023/07/08 04:36:05;;;;;;;1999.90;999.90;;;19.00;74.70;;;;;;5093014;28;20111;-72
2023/07/08 04:38:36;;;;;;;1999.90;999.90;;;19.00;75.00;;;;;;5095138;28;20016;-77
2023/07/08 04:41:05;;;;;;;1999.90;999.90;;;19.00;74.90;;;;;;5092466;28;20031;-73
2023/07/08 04:43:32;;;;;;;1999.90;999.90;;;19.00;74.90;;;;;;5096396;28;20099;-73
2023/07/08 04:46:00;;;;;;;1999.90;999.90;;;19.00;75.10;;;;;;5089189;28;20036;-76
2023/07/08 04:48:27;;;;;;;1999.90;999.90;;;19.00;75.20;;;;;;5091795;28;20111;-73
2023/07/08 04:50:54;;;;;;;1999.90;999.90;;;19.00;75.40;;;;;;5098064;28;20487;-77
2023/07/08 04:53:22;;;;;;;1999.90;999.90;;;19.00;75.80;;;;;;5093340;28;20032;-77
2023/07/08 04:55:55;;;;;;;1999.90;999.90;;;19.00;75.80;;;;;;5089237;28;20024;-78
2023/07/08 04:58:23;;;;;;;1999.90;999.90;;;18.90;76.00;;;;;;5088987;28;20035;-73
2023/07/08 05:00:50;;;;;;;1999.90;999.90;;;19.00;76.00;;;;;;5089678;28;20035;-77
2023/07/08 05:03:18;;;;;;;1999.90;999.90;;;19.00;76.00;;;;;;5103902;27;20019;-77
2023/07/08 05:05:45;;;;;;;1999.90;999.90;;;19.00;76.40;;;;;;5090436;28;20473;-77
2023/07/08 05:08:13;;;;;;;1999.90;999.90;;;19.00;76.60;;;;;;5086718;28;20032;-76
2023/07/08 05:10:41;;;;;;;1999.90;999.90;;;18.90;76.70;;;;;;5092037;28;20027;-74
2023/07/08 05:13:08;;;;;;;1999.90;999.90;;;18.90;77.40;;;;;;5102203;28;20058;-73
2023/07/08 05:15:36;;;;;;;1999.90;999.90;;;18.90;77.50;;;;;;5095585;28;20047;-75
2023/07/08 05:18:03;;;;;;;1999.90;999.90;;;18.90;77.80;;;;;;5099305;28;20024;-72
2023/07/08 05:20:32;;;;;;;1999.90;999.90;;;18.90;77.90;;;;;;5085602;28;20089;-79
2023/07/08 05:23:00;;;;;;;1999.90;999.90;;;18.90;78.10;;;;;;5099545;28;20045;-74
2023/07/08 05:25:27;;;;;;;1999.90;999.90;;;18.90;78.00;;;;;;5089061;28;20028;-71
2023/07/08 05:27:56;;;;;;;1999.90;999.90;;;18.90;77.80;;;;;;5093742;28;20036;-72
2023/07/08 05:30:23;;;;;;;1999.90;999.90;;;18.90;78.10;;;;;;5090233;28;20159;-71
2023/07/08 05:32:51;;;;;;;1999.90;999.90;;;18.80;78.60;;;;;;5100686;28;20028;-72
2023/07/08 05:35:18;;;;;;;1999.90;999.90;;;18.80;78.70;;;;;;5090557;28;20025;-75
2023/07/08 05:37:46;;;;;;;1999.90;999.90;;;18.70;79.10;;;;;;5092943;28;20996;-71
2023/07/08 05:40:14;;;;;;;1999.90;999.90;;;18.70;78.80;;;;;;5095152;28;20032;-73
2023/07/08 05:42:41;;;;;;;1999.90;999.90;;;18.70;79.10;;;;;;5098414;28;20020;-72
2023/07/08 05:45:10;;;;;;;1999.90;999.90;;;18.60;79.20;;;;;;5098546;28;20363;-73
2023/07/08 05:47:38;;;;;;;1999.90;999.90;;;18.60;79.50;;;;;;5092776;28;21049;-74
2023/07/08 05:50:06;;;;;;;1999.90;999.90;;;18.50;80.00;;;;;;5090267;28;20025;-80
2023/07/08 05:52:33;;;;;;;1999.90;999.90;;;18.50;80.10;;;;;;5098672;28;20025;-75
2023/07/08 05:55:01;;;;;;;1999.90;999.90;;;18.50;80.20;;;;;;5094401;28;20032;-77
2023/07/08 05:57:28;;;;;;;1999.90;999.90;;;18.40;80.30;;;;;;5087712;28;20028;-72
2023/07/08 05:59:55;;;;;;;1999.90;999.90;;;18.30;80.80;;;;;;5089985;28;20817;-71
2023/07/08 06:02:25;;;;;;;1999.90;999.90;;;18.30;80.40;;;;;;5097232;28;20058;-79
2023/07/08 06:04:53;;;;;;;1999.90;999.90;;;18.30;81.40;;;;;;5092193;28;20047;-79
2023/07/08 06:07:20;;;;;;;1999.90;999.90;;;18.30;80.90;;;;;;5096276;28;20123;-71
2023/07/08 06:09:47;;;;;;;1999.90;999.90;;;18.30;81.00;;;;;;5086008;28;20505;-81
2023/07/08 06:12:15;;;;;;;1999.90;999.90;;;18.30;81.00;;;;;;5097731;28;20051;-79
2023/07/08 06:14:42;;;;;;;1999.90;999.90;;;18.40;81.00;;;;;;5101039;28;20024;-77
2023/07/08 06:17:10;;;;;;;1999.90;999.90;;;18.40;80.80;;;;;;5098456;28;20031;-79
2023/07/08 06:19:37;;;;;;;1999.90;999.90;;;18.50;80.90;;;;;;5098337;28;20020;-79
2023/07/08 06:22:05;;;;;;;1999.90;999.90;;;18.50;81.20;;;;;;5095257;28;20585;-79
2023/07/08 06:24:32;;;;;;;1999.90;999.90;;;18.50;81.00;;;;;;5092185;28;20048;-80
2023/07/08 06:27:00;;;;;;;1999.90;999.90;;;18.50;81.30;;;;;;5091727;28;20039;-75
2023/07/08 06:29:27;;;;;;;1999.90;999.90;;;18.40;81.50;;;;;;5094592;28;20032;-82
2023/07/08 06:31:55;;;;;;;1999.90;999.90;;;18.40;81.40;;;;;;5089095;28;20494;-82
2023/07/08 06:34:23;;;;;;;1999.90;999.90;;;18.20;82.00;;;;;;5091573;28;20053;-73
2023/07/08 06:36:51;;;;;;;1999.90;999.90;;;18.10;82.50;;;;;;5093150;28;20098;-76
2023/07/08 06:39:19;;;;;;;1999.90;999.90;;;17.90;82.80;;;;;;5088774;28;20031;-78
2023/07/08 06:41:46;;;;;;;1999.90;999.90;;;17.70;83.40;;;;;;5103506;28;20046;-77
2023/07/08 06:44:13;;;;;;;1999.90;999.90;;;17.50;84.00;;;;;;5098937;28;20028;-82
2023/07/08 06:46:41;;;;;;;1999.90;999.90;;;17.30;84.70;;;;;;5101481;28;20114;-77
2023/07/08 06:49:09;;;;;;;1999.90;999.90;;;17.10;85.30;;;;;;5100391;28;20082;-81
2023/07/08 06:51:36;;;;;;;1999.90;999.90;;;17.00;85.80;;;;;;5097530;28;20539;-75
2023/07/08 06:54:10;;;;;;;1999.90;999.90;;;16.80;86.40;;;;;;5104081;28;20072;-81
2023/07/08 06:56:42;;;;;;;1999.90;999.90;;;16.70;86.90;;;;;;5094169;28;20024;-77
2023/07/08 06:59:10;;;;;;;1999.90;999.90;;;16.60;87.20;;;;;;5097319;28;20120;-77
2023/07/08 07:01:37;;;;;;;1999.90;999.90;;;16.50;87.70;;;;;;5100793;28;20026;-80
2023/07/08 07:04:04;;;;;;;1999.90;999.90;;;16.40;88.10;;;;;;5098269;28;20032;-80
2023/07/08 07:06:32;;;;;;;1999.90;999.90;;;16.30;88.40;;;;;;5094211;28;20046;-72
2023/07/08 07:08:59;;;;;;;1999.90;999.90;;;16.30;88.70;;;;;;5099599;28;20095;-77
2023/07/08 07:11:27;;;;;;;1999.90;999.90;;;16.20;89.20;;;;;;5102637;28;20035;-75
2023/07/08 07:13:55;;;;;;;1999.90;999.90;;;16.00;89.50;;;;;;5098563;28;20035;-77
2023/07/08 07:16:23;;;;;;;1999.90;999.90;;;16.00;90.00;;;;;;5103678;28;20035;-77
2023/07/08 07:18:51;;;;;;;1999.90;999.90;;;15.80;90.10;;;;;;5102859;28;20049;-75
2023/07/08 07:21:19;;;;;;;1999.90;999.90;;;15.70;90.50;;;;;;5101149;28;20036;-79
2023/07/08 07:23:46;;;;;;;1999.90;999.90;;;15.60;90.70;;;;;;5093708;28;20095;-80
2023/07/08 07:26:14;;;;;;;1999.90;999.90;;;15.50;90.90;;;;;;5086924;28;20155;-81
2023/07/08 07:28:41;;;;;;;1999.90;999.90;;;15.40;91.10;;;;;;5098101;28;20088;-79
2023/07/08 07:31:10;;;;;;;1999.90;999.90;;;15.40;91.30;;;;;;5101897;28;20028;-81
2023/07/08 07:33:38;;;;;;;1999.90;999.90;;;15.30;91.40;;;;;;5103799;28;20108;-78
2023/07/08 07:36:05;;;;;;;1999.90;999.90;;;15.30;91.50;;;;;;5101708;28;20115;-78
2023/07/08 07:38:34;;;;;;;1999.90;999.90;;;15.20;91.60;;;;;;5096424;28;20024;-75
2023/07/08 07:41:05;;;;;;;1999.90;999.90;;;15.20;91.70;;;;;;5098483;28;20023;-75
2023/07/08 07:43:34;;;;;;;1999.90;999.90;;;15.10;91.80;;;;;;5097285;28;20099;-74
2023/07/08 07:46:02;;;;;;;1999.90;999.90;;;15.00;92.00;;;;;;5093478;28;20085;-78
2023/07/08 07:48:29;;;;;;;1999.90;999.90;;;15.00;92.10;;;;;;5105326;28;20062;-76
2023/07/08 07:50:57;;;;;;;1999.90;999.90;;;15.00;92.20;;;;;;5090288;28;20123;-79
2023/07/08 07:53:24;;;;;;;1999.90;999.90;;;15.00;92.40;;;;;;5100985;28;20064;-75
2023/07/08 07:56:03;;;;;;;1999.90;999.90;;;15.00;92.40;;;;;;5101265;28;20028;-76
2023/07/08 07:58:31;;;;;;;1999.90;999.90;;;15.00;92.50;;;;;;5095811;28;20024;-77
2023/07/08 08:00:58;;;;;;;1999.90;999.90;;;14.90;92.60;;;;;;5091654;28;20024;-75
2023/07/08 08:03:26;;;;;;;1999.90;999.90;;;14.80;92.70;;;;;;5099841;28;20066;-71
2023/07/08 08:05:53;;;;;;;1999.90;999.90;;;14.80;92.80;;;;;;5091438;28;20032;-77
2023/07/08 08:08:22;;;;;;;1999.90;999.90;;;14.70;92.80;;;;;;5094220;28;20033;-74
2023/07/08 08:10:49;;;;;;;1999.90;999.90;;;14.70;92.80;;;;;;5090537;28;20024;-80
2023/07/08 08:13:17;;;;;;;1999.90;999.90;;;14.70;92.70;;;;;;5103252;28;20054;-74
2023/07/08 08:15:44;;;;;;;1999.90;999.90;;;14.70;92.60;;;;;;5090309;28;20934;-76
2023/07/08 08:18:11;;;;;;;1999.90;999.90;;;14.70;92.50;;;;;;5095378;28;20020;-82
2023/07/08 08:20:40;;;;;;;1999.90;999.90;;;14.70;92.50;;;;;;5093843;28;20035;-77
2023/07/08 08:23:08;;;;;;;1999.90;999.90;;;14.70;92.10;;;;;;5094230;28;20487;-78
2023/07/08 08:25:35;;;;;;;1999.90;999.90;;;14.80;92.20;;;;;;5088941;28;20052;-74
2023/07/08 08:28:03;;;;;;;1999.90;999.90;;;14.80;92.00;;;;;;5109199;28;20038;-75
2023/07/08 08:30:31;;;;;;;1999.90;999.90;;;14.80;92.00;;;;;;5095170;28;20028;-76
2023/07/08 08:32:58;;;;;;;1999.90;999.90;;;14.80;91.90;;;;;;5095840;28;20390;-75
2023/07/08 08:35:26;;;;;;;1999.90;999.90;;;14.80;91.90;;;;;;5090926;28;20056;-72
2023/07/08 08:37:53;;;;;;;1999.90;999.90;;;14.70;92.00;;;;;;5097004;28;20020;-74
2023/07/08 08:40:23;;;;;;;1999.90;999.90;;;14.70;91.90;;;;;;5094724;28;20055;-76
2023/07/08 08:43:02;;;;;;;1999.90;999.90;;;14.80;91.80;;;;;;5097634;28;20035;-70
2023/07/08 08:45:34;;;;;;;1999.90;999.90;;;14.70;91.80;;;;;;5104445;27;20528;-72
2023/07/08 08:48:07;;;;;;;1999.90;999.90;;;14.70;91.80;;;;;;5095877;28;20394;-70
2023/07/08 08:50:46;;;;;;;1999.90;999.90;;;14.70;91.70;;;;;;5095499;28;20020;-70
2023/07/08 08:53:16;;;;;;;1999.90;999.90;;;14.60;91.70;;;;;;5099672;28;20023;-70
2023/07/08 08:55:45;;;;;;;1999.90;999.90;;;14.60;91.10;;;;;;5091096;28;20028;-71
2023/07/08 08:58:26;;;;;;;1999.90;999.90;;;14.70;90.70;;;;;;5100036;28;20059;-70
2023/07/08 09:00:58;;;;;;;1999.90;999.90;;;14.80;90.30;;;;;;5097259;28;20052;-70
2023/07/08 09:04:07;;;;;;;1999.90;999.90;;;15.00;89.90;;;;;;5094315;28;20019;-72
2023/07/08 09:06:36;;;;;;;1999.90;999.90;;;15.20;89.40;;;;;;5093113;28;20119;-80
2023/07/08 09:09:33;;;;;;;1999.90;999.90;;;15.20;89.10;;;;;;5100271;28;20135;-83
2023/07/08 09:12:10;;;;;;;1999.90;999.90;;;15.20;89.10;;;;;;5094297;28;20023;-81
2023/07/08 09:14:41;;;;;;;1999.90;999.90;;;15.20;88.70;;;;;;5097593;28;20118;-81
2023/07/08 09:17:27;;;;;;;1999.90;999.90;;;15.20;88.70;;;;;;5100658;28;20087;-81
2023/07/08 09:20:03;;;;;;;1999.90;999.90;;;15.20;88.60;;;;;;5096963;28;20032;-81
2023/07/08 09:22:45;;;;;;;1999.90;999.90;;;15.10;88.70;;;;;;5101302;28;20047;-81
2023/07/08 09:25:36;;;;;;;1999.90;999.90;;;15.20;88.20;;;;;;5099301;28;20035;-82
2023/07/08 09:28:03;;;;;;;1999.90;999.90;;;15.20;88.40;;;;;;5098982;28;20510;-76
2023/07/08 09:30:31;;;;;;;1999.90;999.90;;;15.10;88.50;;;;;;5092940;28;20115;-81
2023/07/08 09:33:03;;;;;;;1999.90;999.90;;;15.10;88.40;;;;;;5092338;28;20421;-81
2023/07/08 09:35:41;;;;;;;1999.90;999.90;;;15.10;88.10;;;;;;5084208;28;20475;-79
2023/07/08 09:38:18;;;;;;;1999.90;999.90;;;15.10;88.00;;;;;;5099602;28;20047;-84
2023/07/08 09:40:53;;;;;;;1999.90;999.90;;;15.10;87.20;;;;;;5092779;28;20510;-79
2023/07/08 09:43:36;;;;;;;1999.90;999.90;;;15.10;87.10;;;;;;5098312;28;20019;-83
2023/07/08 09:46:04;;;;;;;1999.90;999.90;;;15.10;87.20;;;;;;5091032;28;20032;-75
2023/07/08 09:48:36;;;;;;;1999.90;999.90;;;15.10;86.90;;;;;;5098132;28;20356;-79
2023/07/08 09:51:04;;;;;;;1999.90;999.90;;;15.20;87.00;;;;;;5089883;28;20379;-76
2023/07/08 09:53:33;;;;;;;1999.90;999.90;;;15.20;87.00;;;;;;5091073;28;20125;-84
2023/07/08 09:56:03;;;;;;;1999.90;999.90;;;15.20;87.20;;;;;;5097441;28;20103;-80
2023/07/08 09:58:37;;;;;;;1999.90;999.90;;;15.10;87.40;;;;;;5096257;28;20360;-82
2023/07/08 10:01:28;;;;;;;1999.90;999.90;;;15.20;87.40;;;;;;5103838;28;20080;-86
2023/07/08 10:04:01;;;;;;;1999.90;999.90;;;15.20;87.80;;;;;;5089118;28;20051;-84
2023/07/08 10:06:33;;;;;;;1999.90;999.90;;;15.10;88.30;;;;;;5104434;28;20032;-76
2023/07/08 10:09:13;;;;;;;1999.90;999.90;;;15.10;88.50;;;;;;5090649;28;20024;-80
2023/07/08 10:11:57;;;;;;;1999.90;999.90;;;15.20;88.60;;;;;;5091142;28;20050;-78
2023/07/08 10:14:25;;;;;;;1999.90;999.90;;;15.10;88.90;;;;;;5092913;28;20027;-76
2023/07/08 10:16:52;;;;;;;1999.90;999.90;;;15.00;89.00;;;;;;5097154;28;20027;-76
2023/07/08 10:19:21;;;;;;;1999.90;999.90;;;15.00;88.80;;;;;;5097317;28;20150;-82
2023/07/08 10:22:04;;;;;;;1999.90;999.90;;;14.90;89.00;;;;;;5102386;28;20020;-75
2023/07/08 10:24:47;;;;;;;1999.90;999.90;;;14.90;89.00;;;;;;5091891;28;20487;-81
2023/07/08 10:27:38;;;;;;;1999.90;999.90;;;14.80;89.20;;;;;;5096676;28;20126;-76
2023/07/08 10:30:23;;;;;;;1999.90;999.90;;;14.70;89.10;;;;;;5100122;28;20474;-85
2023/07/08 10:33:20;;;;;;;1999.90;999.90;;;14.80;88.90;;;;;;5098441;28;20051;-74
2023/07/08 10:36:24;;;;;;;1999.90;999.90;;;14.70;89.10;;;;;;5085366;28;20028;-76
2023/07/08 10:39:16;;;;;;;1999.90;999.90;;;14.70;89.20;;;;;;5092761;28;20050;-76
2023/07/08 10:42:16;;;;;;;1999.90;999.90;;;14.60;89.10;;;;;;5094843;28;20389;-76
2023/07/08 10:45:05;;;;;;;1999.90;999.90;;;14.60;89.10;;;;;;5093276;28;20639;-76
2023/07/08 10:47:55;;;;;;;1999.90;999.90;;;14.50;89.10;;;;;;5098594;28;20036;-80
2023/07/08 10:50:41;;;;;;;1999.90;999.90;;;14.50;89.40;;;;;;5093140;28;20120;-81
2023/07/08 10:53:37;;;;;;;1999.90;999.90;;;14.40;89.70;;;;;;5095339;28;20502;-82
2023/07/08 10:56:17;;;;;;;1999.90;999.90;;;14.40;89.80;;;;;;5039592;28;20112;-75
2023/07/08 10:59:23;;;;;;;1999.90;999.90;;;14.30;89.80;;;;;;5097995;28;20126;-73
2023/07/08 11:02:04;;;;;;;1999.90;999.90;;;14.40;89.80;;;;;;5076791;28;20043;-74
2023/07/08 11:05:00;;;;;;;1999.90;999.90;;;14.30;89.90;;;;;;5096255;28;20303;-79
2023/07/08 11:07:43;;;;;;;1999.90;999.90;;;14.20;90.10;;;;;;5102392;28;20446;-76
2023/07/08 11:10:30;;;;;;;1999.90;999.90;;;14.10;90.10;;;;;;5100511;28;20032;-80
2023/07/08 11:13:10;;;;;;;1999.90;999.90;;;14.00;90.30;;;;;;5100203;28;20035;-79
2023/07/08 11:15:57;;;;;;;1999.90;999.90;;;14.00;90.10;;;;;;5097981;28;20035;-76
2023/07/08 11:18:55;;;;;;;1999.90;999.90;;;13.90;90.40;;;;;;5109172;28;20084;-73
2023/07/08 11:21:50;;;;;;;1999.90;999.90;;;13.80;90.30;;;;;;5093262;28;20434;-77
2023/07/08 11:24:27;;;;;;;1999.90;999.90;;;13.80;90.10;;;;;;5097206;28;20081;-73
2023/07/08 11:27:24;;;;;;;1999.90;999.90;;;13.90;90.10;;;;;;5099416;28;20074;-73
2023/07/08 11:30:15;;;;;;;1999.90;999.90;;;13.90;90.20;;;;;;5088028;28;20036;-77
2023/07/08 11:32:46;;;;;;;1999.90;999.90;;;13.90;90.30;;;;;;5088597;28;20443;-77
2023/07/08 11:35:35;;;;;;;1999.90;999.90;;;13.80;90.30;;;;;;5094822;28;20052;-71
2023/07/08 11:38:04;;;;;;;1999.90;999.90;;;13.80;90.50;;;;;;5087759;28;20052;-80
2023/07/08 11:40:32;;;;;;;1999.90;999.90;;;13.80;90.70;;;;;;5101828;28;20384;-76
2023/07/08 11:43:06;;;;;;;1999.90;999.90;;;13.70;90.80;;;;;;5113163;28;20027;-73
2023/07/08 11:45:37;;;;;;;1999.90;999.90;;;13.60;90.90;;;;;;5089581;28;20024;-73
2023/07/08 11:48:17;;;;;;;1999.90;999.90;;;13.60;91.00;;;;;;5107683;28;20040;-73
2023/07/08 11:50:47;;;;;;;1999.90;999.90;;;13.40;91.10;;;;;;5090979;28;20225;-79
2023/07/08 11:53:34;;;;;;;1999.90;999.90;;;13.30;91.40;;;;;;5101856;28;20034;-73
2023/07/08 11:56:04;;;;;;;1999.90;999.90;;;13.10;91.70;;;;;;5091486;28;20064;-75
2023/07/08 11:58:52;;;;;;;1999.90;999.90;;;12.90;91.90;;;;;;5097009;28;20056;-73
2023/07/08 12:01:28;;;;;;;1999.90;999.90;;;12.90;92.10;;;;;;5094473;28;20027;-73
2023/07/08 12:04:09;;;;;;;1999.90;999.90;;;12.90;92.40;;;;;;5102875;28;20391;-78
2023/07/08 12:06:36;;;;;;;1999.90;999.90;;;12.90;92.20;;;;;;5095421;28;20056;-71
2023/07/08 12:09:27;;;;;;;1999.90;999.90;;;12.80;92.40;;;;;;5096491;28;20036;-79
2023/07/08 12:12:01;;;;;;;1999.90;999.90;;;13.00;92.10;;;;;;5068335;27;20115;-70
2023/07/08 12:14:30;;;;;;;1999.90;999.90;;;13.10;92.10;;;;;;5093050;28;20393;-71
2023/07/08 12:16:57;;;;;;;1999.90;999.90;;;13.00;92.10;;;;;;5100435;28;20085;-75
2023/07/08 12:19:28;;;;;;;1999.90;999.90;;;13.00;92.20;;;;;;5096767;28;20424;-72
2023/07/08 12:21:56;;;;;;;1999.90;999.90;;;13.10;91.90;;;;;;5100289;28;20059;-78